Shanghai Express — DPCK — position and weather

sailwx.info

Track history (hours):
 
Tides and Currents Weather Stations Pressure Air Temp Water Temp Dewpoint Dewpoint Depression Visibility Wind Speed Wind Dir Waves Ship Positions

Shanghai Express

Last reported at 2014-Aug-20 23:33 UTC. Time now 2014-Aug-21 00:26 UTC.
Position N 38°38' E 008°10'.

Length 320.6 m; beam 42.8 m; draft 14.5 m.

Type: Ship. MMSI: 211367460.

Date/timePositionNaut miles runAvg speedWind from/ knotsBaromVisibWave heightAir tempDewpointWater temp
2014-Aug-20 23:33N 38°38' E 008°10'19616.9
2014-Aug-20 12:00N 37°42' E 004°12'12516.8 280 / 71017.0 5.4 0.527.523.426.0
2014-Aug-20 04:32N 37°13' E 001°38'2017.1
2014-Aug-20 03:21N 37°08' E 001°14'1517.1
2014-Aug-20 02:29N 37°04' E 000°56'3317.2
2014-Aug-20 00:33N 36°55' E 000°16'2317.6
2014-Aug-19 23:15N 36°49' W 000°12'6717.2
2014-Aug-19 19:21N 36°30' W 001°32'12617.1
2014-Aug-19 12:00N 36°06' W 004°06'5619.3 250 / 181015.5 5.4 2.027.020.623.0
2014-Aug-19 09:06N 35°58' W 005°14'1018.3
2014-Aug-19 08:33N 35°57' W 005°27'1817.2
2014-Aug-19 07:30N 35°54' W 005°49'1717.6
2014-Aug-19 06:33N 35°53' W 006°09'1817.5
2014-Aug-19 05:33N 35°53' W 006°31'1817.9
2014-Aug-19 04:33N 35°57' W 006°52'1818.0
2014-Aug-19 03:33N 35°60' W 007°14'1917.9
2014-Aug-19 02:30N 36°03' W 007°37'1717.5
2014-Aug-19 01:33N 36°05' W 007°57'1717.4
2014-Aug-19 00:33N 36°09' W 008°19'1817.4
2014-Aug-18 23:31N 36°12' W 008°41'1717.6
2014-Aug-18 22:33N 36°15' W 009°01'1717.4
2014-Aug-18 21:33N 36°22' W 009°21'1717.3
2014-Aug-18 20:33N 36°28' W 009°42'1817.3
2014-Aug-18 19:31N 36°34' W 010°03'1917.4
2014-Aug-18 18:26N 36°40' W 010°25'1817.4
2014-Aug-18 17:23N 36°47' W 010°46'9116.9
2014-Aug-18 12:00N 37°12' W 012°36'81217.5 330 / 151018.0 5.4 1.021.516.121.0
2014-Aug-16 13:29N 40°26' W 029°29'3517.6
2014-Aug-16 11:31N 40°31' W 030°14'2217.6
2014-Aug-16 10:15N 40°33' W 030°43'1517.6
2014-Aug-16 09:26N 40°35' W 031°02'37617.6
2014-Aug-15 12:00N 41°00' W 039°18'42217.6 200 / 81013.510.8 0.523.020.824.0
2014-Aug-14 12:00N 40°48' W 048°36'75317.9 999 / 41011.110.8 0.522.518.025.0
2014-Aug-12 18:00N 38°42' W 064°42'10817.9 020 / 151022.5 5.4 1.525.516.424.0
2014-Aug-12 12:00N 38°12' W 066°54'10717.8 090 / 151020.010.8 0.523.819.724.0
2014-Aug-12 06:00N 37°48' W 069°06'2225.7 060 / 161020.0 5.4 1.525.013.928.0
2014-Aug-12 05:08N 37°48' W 069°34'1220.2
2014-Aug-12 04:33N 37°45' W 069°48'2220.8
2014-Aug-12 03:28N 37°38' W 070°16'1920.4
2014-Aug-12 02:33N 37°33' W 070°38'1919.3
2014-Aug-12 01:33N 37°28' W 071°02'2319.4
2014-Aug-12 00:24N 37°24' W 071°30'4521.4
2014-Aug-11 22:18N 37°15' W 072°25'1520.5
2014-Aug-11 21:33N 37°10' W 072°43'2318.3
2014-Aug-11 20:17N 37°05' W 073°11'4419.1
2014-Aug-11 18:00N 37°00' W 074°06'7516.5 070 / 211020.0 5.4 2.025.019.925.0
2014-Aug-11 13:28N 36°49' W 075°38'1617.2
2014-Aug-11 12:33N 36°55' W 075°56'1413.7
2014-Aug-11 11:32N 37°00' W 076°13'8 7.0
2014-Aug-11 10:25N 36°54' W 076°20'0 0.1
2014-Aug-11 09:26N 36°54' W 076°20'0 0.0
2014-Aug-11 08:33N 36°54' W 076°20'0 0.0
2014-Aug-11 07:33N 36°54' W 076°20'0 0.0
2014-Aug-11 06:31N 36°54' W 076°20'0 0.0
2014-Aug-11 05:33N 36°54' W 076°20'0 0.0
2014-Aug-11 04:29N 36°54' W 076°20'  
Track history (hours):
 
Tides and Currents Weather Stations Pressure Air Temp Water Temp Dewpoint Dewpoint Depression Visibility Wind Speed Wind Dir Waves Ship Positions

Shanghai Express

Last reported at 2014-Aug-20 23:33 UTC. Time now 2014-Aug-21 00:26 UTC.
Position N 38°38' E 008°10'.

Length 320.6 m; beam 42.8 m; draft 14.5 m.

Type: Ship. MMSI: 211367460.

Date/timePositionNaut miles runAvg speedWind from/ knotsBaromVisibWave heightAir tempDewpointWater temp
2014-Aug-20 23:33N 38°38' E 008°10'19616.9
2014-Aug-20 12:00N 37°42' E 004°12'12516.8 280 / 71017.0 5.4 0.527.523.426.0
2014-Aug-20 04:32N 37°13' E 001°38'2017.1
2014-Aug-20 03:21N 37°08' E 001°14'1517.1
2014-Aug-20 02:29N 37°04' E 000°56'3317.2
2014-Aug-20 00:33N 36°55' E 000°16'2317.6
2014-Aug-19 23:15N 36°49' W 000°12'6717.2
2014-Aug-19 19:21N 36°30' W 001°32'12617.1
2014-Aug-19 12:00N 36°06' W 004°06'5619.3 250 / 181015.5 5.4 2.027.020.623.0
2014-Aug-19 09:06N 35°58' W 005°14'1018.3
2014-Aug-19 08:33N 35°57' W 005°27'1817.2
2014-Aug-19 07:30N 35°54' W 005°49'1717.6
2014-Aug-19 06:33N 35°53' W 006°09'1817.5
2014-Aug-19 05:33N 35°53' W 006°31'1817.9
2014-Aug-19 04:33N 35°57' W 006°52'1818.0
2014-Aug-19 03:33N 35°60' W 007°14'1917.9
2014-Aug-19 02:30N 36°03' W 007°37'1717.5
2014-Aug-19 01:33N 36°05' W 007°57'1717.4
2014-Aug-19 00:33N 36°09' W 008°19'1817.4
2014-Aug-18 23:31N 36°12' W 008°41'1717.6
2014-Aug-18 22:33N 36°15' W 009°01'1717.4
2014-Aug-18 21:33N 36°22' W 009°21'1717.3
2014-Aug-18 20:33N 36°28' W 009°42'1817.3
2014-Aug-18 19:31N 36°34' W 010°03'1917.4
2014-Aug-18 18:26N 36°40' W 010°25'1817.4
2014-Aug-18 17:23N 36°47' W 010°46'9116.9
2014-Aug-18 12:00N 37°12' W 012°36'81217.5 330 / 151018.0 5.4 1.021.516.121.0
2014-Aug-16 13:29N 40°26' W 029°29'3517.6
2014-Aug-16 11:31N 40°31' W 030°14'2217.6
2014-Aug-16 10:15N 40°33' W 030°43'1517.6
2014-Aug-16 09:26N 40°35' W 031°02'37617.6
2014-Aug-15 12:00N 41°00' W 039°18'42217.6 200 / 81013.510.8 0.523.020.824.0
2014-Aug-14 12:00N 40°48' W 048°36'75317.9 999 / 41011.110.8 0.522.518.025.0
2014-Aug-12 18:00N 38°42' W 064°42'10817.9 020 / 151022.5 5.4 1.525.516.424.0
2014-Aug-12 12:00N 38°12' W 066°54'10717.8 090 / 151020.010.8 0.523.819.724.0
2014-Aug-12 06:00N 37°48' W 069°06'2225.7 060 / 161020.0 5.4 1.525.013.928.0
2014-Aug-12 05:08N 37°48' W 069°34'1220.2
2014-Aug-12 04:33N 37°45' W 069°48'2220.8
2014-Aug-12 03:28N 37°38' W 070°16'1920.4
2014-Aug-12 02:33N 37°33' W 070°38'1919.3
2014-Aug-12 01:33N 37°28' W 071°02'2319.4
2014-Aug-12 00:24N 37°24' W 071°30'4521.4
2014-Aug-11 22:18N 37°15' W 072°25'1520.5
2014-Aug-11 21:33N 37°10' W 072°43'2318.3
2014-Aug-11 20:17N 37°05' W 073°11'4419.1
2014-Aug-11 18:00N 37°00' W 074°06'7516.5 070 / 211020.0 5.4 2.025.019.925.0
2014-Aug-11 13:28N 36°49' W 075°38'1617.2
2014-Aug-11 12:33N 36°55' W 075°56'1413.7
2014-Aug-11 11:32N 37°00' W 076°13'8 7.0
2014-Aug-11 10:25N 36°54' W 076°20'0 0.1
2014-Aug-11 09:26N 36°54' W 076°20'0 0.0
2014-Aug-11 08:33N 36°54' W 076°20'0 0.0
2014-Aug-11 07:33N 36°54' W 076°20'0 0.0
2014-Aug-11 06:31N 36°54' W 076°20'0 0.0
2014-Aug-11 05:33N 36°54' W 076°20'0 0.0
2014-Aug-11 04:29N 36°54' W 076°20'  

Dump ship's entire track history